createdAt,value
2023-03-26T00:01:15.553Z,13.08
2023-03-26T00:03:45.117Z,13.10
2023-03-26T00:06:15.631Z,13.08
2023-03-26T00:08:47.503Z,13.07
2023-03-26T00:11:16.264Z,13.09
2023-03-26T00:13:43.984Z,13.09
2023-03-26T00:16:13.784Z,13.06
2023-03-26T00:18:44.236Z,12.99
2023-03-26T00:21:14.269Z,13.11
2023-03-26T00:23:41.586Z,13.05
2023-03-26T00:26:10.647Z,13.04
2023-03-26T00:28:42.017Z,12.96
2023-03-26T00:31:12.294Z,13.05
2023-03-26T00:33:40.732Z,13.03
2023-03-26T00:36:11.871Z,12.87
2023-03-26T00:38:41.618Z,12.89
2023-03-26T00:41:17.975Z,13.03
2023-03-26T00:43:46.621Z,13.02
2023-03-26T00:46:13.256Z,13.00
2023-03-26T00:48:45.525Z,12.98
2023-03-26T00:51:15.491Z,13.05
2023-03-26T00:53:44.477Z,13.11
2023-03-26T00:56:11.872Z,13.12
2023-03-26T00:58:38.817Z,13.14
2023-03-26T01:01:11.226Z,13.23
2023-03-26T01:03:38.609Z,13.19
2023-03-26T01:06:12.875Z,13.18
2023-03-26T01:08:48.305Z,13.23
2023-03-26T01:11:22.054Z,13.19
2023-03-26T01:13:52.377Z,13.23
2023-03-26T01:16:41.663Z,13.29
2023-03-26T01:19:16.490Z,13.33
2023-03-26T01:21:43.086Z,13.28
2023-03-26T01:24:10.598Z,13.33
2023-03-26T01:26:49.238Z,13.41
2023-03-26T01:29:44.702Z,13.37
2023-03-26T01:32:38.068Z,13.37
2023-03-26T01:35:34.489Z,13.44
2023-03-26T01:38:23.322Z,13.34
2023-03-26T01:41:13.700Z,13.38
2023-03-26T01:43:54.293Z,13.39
2023-03-26T01:46:23.798Z,13.40
2023-03-26T01:48:51.699Z,13.37
2023-03-26T01:51:32.035Z,13.41
2023-03-26T01:53:59.438Z,13.41
2023-03-26T01:56:44.985Z,13.17
2023-03-26T01:59:14.301Z,13.08
2023-03-26T02:01:55.026Z,13.11
2023-03-26T02:04:38.440Z,13.15
2023-03-26T02:07:34.604Z,13.14
2023-03-26T02:10:11.337Z,13.34
2023-03-26T02:12:38.123Z,13.04
2023-03-26T02:15:06.331Z,13.05
2023-03-26T02:17:33.335Z,12.86
2023-03-26T02:20:06.402Z,12.85
2023-03-26T02:22:32.972Z,12.89
2023-03-26T02:24:59.542Z,12.78
2023-03-26T02:27:26.363Z,12.93
2023-03-26T02:29:52.949Z,12.90
2023-03-26T02:32:20.176Z,12.95
2023-03-26T02:34:47.377Z,13.07
2023-03-26T02:37:13.968Z,13.04
2023-03-26T02:39:40.696Z,13.04
2023-03-26T02:42:07.652Z,13.03
2023-03-26T02:44:34.258Z,13.00
2023-03-26T02:47:00.913Z,13.04
2023-03-26T02:49:27.546Z,13.06
2023-03-26T02:51:56.389Z,13.10
2023-03-26T02:54:23.330Z,13.14
2023-03-26T02:56:49.927Z,13.25
2023-03-26T02:59:16.437Z,13.49
2023-03-26T03:01:43.148Z,13.53
2023-03-26T03:04:13.033Z,13.67
2023-03-26T03:06:40.681Z,13.63
2023-03-26T03:09:11.393Z,13.66
2023-03-26T03:11:40.961Z,13.75
2023-03-26T03:14:07.932Z,13.71
2023-03-26T03:16:34.619Z,13.71
2023-03-26T03:19:01.953Z,13.68
2023-03-26T03:21:29.355Z,13.69
2023-03-26T03:23:56.410Z,13.64
2023-03-26T03:26:30.132Z,13.58
2023-03-26T03:28:58.182Z,13.60
2023-03-26T03:31:26.616Z,13.56
2023-03-26T03:33:53.327Z,13.50
2023-03-26T03:36:22.704Z,13.42
2023-03-26T03:38:50.782Z,13.39
2023-03-26T03:41:18.788Z,13.41
2023-03-26T03:43:45.935Z,13.40
2023-03-26T03:46:12.619Z,13.38
2023-03-26T03:48:39.264Z,13.37
2023-03-26T03:51:06.379Z,13.36
2023-03-26T03:53:37.279Z,13.36
2023-03-26T03:56:04.802Z,13.42
2023-03-26T03:58:31.485Z,13.41
2023-03-26T04:01:04.628Z,13.46
2023-03-26T04:03:33.264Z,13.35
2023-03-26T04:06:01.738Z,13.32
2023-03-26T04:08:28.281Z,13.36
2023-03-26T04:10:54.924Z,13.35
2023-03-26T04:13:21.704Z,13.41
2023-03-26T04:15:48.416Z,13.39
2023-03-26T04:18:15.090Z,13.36
2023-03-26T04:20:46.772Z,13.39
2023-03-26T04:23:14.772Z,13.38
2023-03-26T04:25:46.781Z,13.32
2023-03-26T04:28:27.702Z,13.32
2023-03-26T04:30:57.110Z,13.40
2023-03-26T04:33:25.006Z,13.37
2023-03-26T04:35:51.859Z,13.36
2023-03-26T04:38:18.690Z,13.36
2023-03-26T04:40:48.500Z,13.37
2023-03-26T04:43:17.996Z,13.44
2023-03-26T04:45:48.679Z,13.40
2023-03-26T04:48:16.003Z,13.40
2023-03-26T04:50:44.578Z,13.39
2023-03-26T04:53:17.172Z,13.40
2023-03-26T04:56:12.714Z,13.37
2023-03-26T04:58:39.915Z,13.39
2023-03-26T05:01:10.216Z,13.39
2023-03-26T05:03:40.787Z,13.40
2023-03-26T05:06:10.945Z,13.36
2023-03-26T05:08:37.497Z,13.38
2023-03-26T05:11:07.434Z,13.42
2023-03-26T05:13:33.940Z,13.39
2023-03-26T05:16:00.500Z,13.39
2023-03-26T05:18:27.062Z,13.40
2023-03-26T05:20:53.842Z,13.33
2023-03-26T05:23:20.555Z,13.38
2023-03-26T05:25:47.728Z,13.26
2023-03-26T05:28:14.477Z,13.18
2023-03-26T05:30:43.429Z,13.18
2023-03-26T05:33:10.732Z,13.18
2023-03-26T05:35:37.485Z,13.14
2023-03-26T05:38:04.100Z,13.08
2023-03-26T05:40:30.642Z,13.10
2023-03-26T05:42:57.184Z,13.06
2023-03-26T05:45:23.777Z,13.01
2023-03-26T05:47:51.461Z,12.82
2023-03-26T05:50:18.397Z,12.66
2023-03-26T05:52:44.926Z,12.68
2023-03-26T05:55:11.811Z,12.52
2023-03-26T05:57:39.142Z,12.45
2023-03-26T06:00:08.937Z,12.43
2023-03-26T06:02:36.112Z,12.37
2023-03-26T06:05:02.891Z,12.31
2023-03-26T06:07:29.448Z,12.09
2023-03-26T06:09:56.378Z,12.14
2023-03-26T06:12:22.963Z,11.73
2023-03-26T06:14:49.690Z,11.55
2023-03-26T06:17:16.348Z,11.53
2023-03-26T06:19:42.855Z,11.57
2023-03-26T06:22:09.420Z,11.58
2023-03-26T06:24:36.004Z,11.64
2023-03-26T06:27:02.946Z,11.64
2023-03-26T06:29:29.492Z,11.67
2023-03-26T06:31:59.577Z,11.67
2023-03-26T06:34:30.308Z,11.65
2023-03-26T06:36:56.945Z,11.47
2023-03-26T06:39:23.473Z,11.51
2023-03-26T06:41:50.016Z,11.44
2023-03-26T06:44:16.537Z,11.58
2023-03-26T06:46:43.150Z,11.56
2023-03-26T06:49:09.749Z,11.50
2023-03-26T06:51:37.716Z,11.47
2023-03-26T06:54:04.453Z,11.58
2023-03-26T06:56:31.005Z,11.58
2023-03-26T06:58:57.556Z,11.66
2023-03-26T07:01:24.161Z,11.63
2023-03-26T07:03:50.871Z,11.59
2023-03-26T07:06:17.459Z,11.68
2023-03-26T07:08:44.162Z,11.61
2023-03-26T07:11:11.185Z,11.66
2023-03-26T07:13:39.955Z,11.72
2023-03-26T07:16:07.323Z,11.62
2023-03-26T07:18:34.101Z,11.74
2023-03-26T07:21:01.433Z,11.70
2023-03-26T07:23:28.250Z,11.73
2023-03-26T07:25:55.597Z,11.81
2023-03-26T07:29:04.635Z,11.68
2023-03-26T07:31:51.395Z,11.64
2023-03-26T07:34:26.996Z,11.75
2023-03-26T07:37:08.035Z,11.72
2023-03-26T07:39:45.006Z,11.63
2023-03-26T07:42:21.391Z,11.79
2023-03-26T07:45:10.478Z,11.74
2023-03-26T07:47:37.633Z,11.76
2023-03-26T07:50:04.775Z,11.88
2023-03-26T07:52:31.609Z,11.97
2023-03-26T07:54:58.405Z,11.95
2023-03-26T07:57:49.318Z,11.80
2023-03-26T08:00:25.133Z,11.72
2023-03-26T08:03:11.844Z,11.93
2023-03-26T08:05:50.666Z,11.74
2023-03-26T08:08:29.550Z,11.79
2023-03-26T08:11:23.719Z,11.63
2023-03-26T08:13:50.378Z,11.81
2023-03-26T08:16:25.480Z,11.84
2023-03-26T08:19:13.854Z,11.82
2023-03-26T08:21:49.778Z,11.72
2023-03-26T08:24:22.922Z,11.83
2023-03-26T08:26:58.444Z,11.88
2023-03-26T08:29:24.990Z,11.90
2023-03-26T08:31:51.914Z,11.99
2023-03-26T08:34:18.566Z,12.02
2023-03-26T08:36:46.099Z,12.34
2023-03-26T08:39:13.139Z,12.36
2023-03-26T08:42:01.237Z,12.04
2023-03-26T08:44:33.592Z,12.11
2023-03-26T08:47:21.152Z,11.93
2023-03-26T08:49:53.587Z,11.91
2023-03-26T08:52:51.131Z,12.08
2023-03-26T08:55:39.393Z,12.06
2023-03-26T08:58:42.967Z,11.97
2023-03-26T09:01:32.227Z,11.88
2023-03-26T09:04:20.402Z,12.02
2023-03-26T09:06:49.673Z,11.99
2023-03-26T09:09:33.783Z,11.81
2023-03-26T09:12:12.375Z,11.84
2023-03-26T09:15:08.555Z,11.64
2023-03-26T09:18:02.572Z,11.67
2023-03-26T09:21:00.133Z,11.74
2023-03-26T09:23:45.022Z,11.40
2023-03-26T09:26:38.780Z,11.21
2023-03-26T09:29:33.319Z,11.45
2023-03-26T09:32:32.123Z,11.51
2023-03-26T09:35:13.114Z,11.43
2023-03-26T09:38:01.106Z,11.23
2023-03-26T09:40:48.583Z,11.14
2023-03-26T09:43:33.119Z,11.07
2023-03-26T09:46:18.097Z,11.12
2023-03-26T09:48:57.303Z,11.07
2023-03-26T09:51:46.556Z,11.14
2023-03-26T09:54:57.114Z,11.18
2023-03-26T09:57:51.312Z,11.26
2023-03-26T10:00:24.054Z,11.41
2023-03-26T10:03:03.941Z,11.27
2023-03-26T10:05:39.100Z,11.26
2023-03-26T10:08:25.118Z,11.31
2023-03-26T10:10:59.543Z,11.51
2023-03-26T10:13:26.237Z,11.55
2023-03-26T10:16:23.493Z,11.61
2023-03-26T10:19:08.025Z,11.87
2023-03-26T10:21:47.778Z,11.50
2023-03-26T10:24:51.743Z,11.82
2023-03-26T10:27:53.633Z,12.02
2023-03-26T10:31:00.388Z,12.17
2023-03-26T10:34:06.426Z,12.32
2023-03-26T10:36:39.270Z,12.19
2023-03-26T10:39:37.111Z,12.45
2023-03-26T10:42:32.754Z,12.47
2023-03-26T10:45:24.370Z,12.70
2023-03-26T10:48:07.656Z,12.76
2023-03-26T10:51:22.867Z,12.41
2023-03-26T10:54:00.919Z,12.55
2023-03-26T10:56:40.454Z,12.43
2023-03-26T10:59:12.609Z,12.50
2023-03-26T11:02:00.490Z,12.45
2023-03-26T11:05:11.609Z,12.60
2023-03-26T11:07:53.798Z,12.68
2023-03-26T11:10:29.247Z,12.80
2023-03-26T11:13:37.984Z,12.89
2023-03-26T11:16:09.789Z,13.00
2023-03-26T11:18:48.642Z,13.34
2023-03-26T11:21:21.242Z,13.17
2023-03-26T11:24:04.665Z,13.44
2023-03-26T11:26:41.091Z,13.76
2023-03-26T11:29:40.800Z,14.10
2023-03-26T11:32:22.553Z,14.10
2023-03-26T11:35:04.288Z,14.04
2023-03-26T11:37:41.672Z,13.94
2023-03-26T11:40:24.413Z,13.96
2023-03-26T11:43:03.778Z,13.77
2023-03-26T11:45:38.421Z,13.74
2023-03-26T11:48:29.032Z,13.92
2023-03-26T11:51:02.779Z,14.09
2023-03-26T11:53:34.889Z,14.11
2023-03-26T11:56:08.919Z,14.36
2023-03-26T11:58:54.588Z,14.69
2023-03-26T12:01:44.304Z,14.64
2023-03-26T12:04:14.693Z,14.74
2023-03-26T12:07:09.487Z,14.86
2023-03-26T12:09:36.111Z,14.96
2023-03-26T12:12:04.340Z,14.92
2023-03-26T12:14:34.604Z,14.94
2023-03-26T12:17:07.722Z,15.05
2023-03-26T12:19:45.304Z,15.36
2023-03-26T12:22:29.711Z,15.29
2023-03-26T12:25:16.581Z,15.19
2023-03-26T12:27:49.923Z,15.13
2023-03-26T12:30:51.842Z,15.05
2023-03-26T12:33:34.229Z,15.24
2023-03-26T12:36:19.618Z,15.29
2023-03-26T12:38:46.517Z,15.34
2023-03-26T12:44:51.312Z,15.30
2023-03-26T12:44:54.653Z,15.36
2023-03-26T12:48:00.391Z,15.52
2023-03-26T12:50:14.569Z,15.22
2023-03-26T12:52:56.407Z,15.14
2023-03-26T12:55:38.246Z,15.29
2023-03-26T12:58:41.296Z,15.30
2023-03-26T13:01:33.274Z,15.37
2023-03-26T13:04:24.411Z,15.42
2023-03-26T13:07:41.753Z,15.55
2023-03-26T13:10:20.103Z,15.76
2023-03-26T13:12:58.149Z,15.91
2023-03-26T13:15:33.625Z,15.70
2023-03-26T13:18:19.721Z,15.78
2023-03-26T13:20:51.464Z,15.54
2023-03-26T13:23:48.797Z,15.19
2023-03-26T13:26:43.013Z,15.26
2023-03-26T13:29:37.336Z,15.21
2023-03-26T13:32:32.949Z,15.05
2023-03-26T13:35:08.618Z,15.05
2023-03-26T13:37:41.894Z,15.05
2023-03-26T13:40:29.679Z,15.40
2023-03-26T13:43:24.466Z,15.14
2023-03-26T13:46:21.703Z,15.08
2023-03-26T13:49:01.877Z,15.05
2023-03-26T13:52:02.903Z,15.18
2023-03-26T13:54:51.630Z,14.76
2023-03-26T13:57:24.852Z,14.79
2023-03-26T13:59:59.483Z,14.59
2023-03-26T14:02:36.306Z,14.13
2023-03-26T14:05:12.420Z,11.57
2023-03-26T14:07:48.916Z,11.67
2023-03-26T14:10:18.857Z,11.73
2023-03-26T14:12:57.544Z,11.89
2023-03-26T14:15:31.384Z,12.03
2023-03-26T14:18:16.228Z,12.07
2023-03-26T14:20:48.564Z,12.29
2023-03-26T14:23:30.491Z,12.50
2023-03-26T14:26:44.563Z,12.70
2023-03-26T14:29:28.830Z,12.90
2023-03-26T14:32:03.564Z,13.04
2023-03-26T14:34:45.427Z,13.19
2023-03-26T14:37:33.769Z,13.41
2023-03-26T14:40:31.949Z,13.59
2023-03-26T14:43:13.451Z,13.72
2023-03-26T14:46:07.927Z,13.99
2023-03-26T14:48:37.271Z,14.14
2023-03-26T14:52:02.781Z,14.31
2023-03-26T14:54:33.723Z,14.37
2023-03-26T14:57:31.888Z,14.47
2023-03-26T15:00:20.926Z,14.44
2023-03-26T15:03:25.998Z,14.49
2023-03-26T15:06:33.815Z,14.48
2023-03-26T15:09:25.890Z,14.54
2023-03-26T15:12:14.660Z,14.64
2023-03-26T15:15:07.346Z,14.08
2023-03-26T15:17:45.748Z,14.12
2023-03-26T15:20:51.703Z,13.91
2023-03-26T15:23:49.889Z,13.74
2023-03-26T15:26:53.635Z,13.93
2023-03-26T15:29:50.263Z,13.85
2023-03-26T15:32:35.717Z,14.15
2023-03-26T15:35:09.707Z,14.10
2023-03-26T15:38:09.103Z,14.13
2023-03-26T15:40:40.469Z,14.14
2023-03-26T15:43:22.589Z,14.17
2023-03-26T15:46:26.553Z,14.30
2023-03-26T15:49:19.813Z,14.24
2023-03-26T15:51:59.419Z,14.31
2023-03-26T15:54:53.015Z,14.32
2023-03-26T15:57:32.508Z,14.08
2023-03-26T16:00:23.142Z,13.76
2023-03-26T16:03:11.619Z,13.81
2023-03-26T16:06:03.713Z,13.74
2023-03-26T16:08:46.796Z,13.92
2023-03-26T16:11:13.897Z,14.01
2023-03-26T16:13:50.657Z,13.90
2023-03-26T16:16:23.726Z,13.89
2023-03-26T16:19:00.131Z,13.94
2023-03-26T16:21:39.366Z,13.92
2023-03-26T16:24:05.855Z,13.88
2023-03-26T16:26:44.674Z,13.91
2023-03-26T16:29:14.546Z,14.20
2023-03-26T16:31:57.935Z,14.11
2023-03-26T16:34:48.992Z,14.20
2023-03-26T16:37:35.691Z,14.49
2023-03-26T16:40:17.744Z,14.57
2023-03-26T16:43:11.390Z,14.32
2023-03-26T16:46:04.093Z,14.31
2023-03-26T16:49:12.162Z,13.92
2023-03-26T16:51:39.862Z,13.64
2023-03-26T16:54:25.714Z,13.28
2023-03-26T16:57:28.948Z,12.63
2023-03-26T17:00:08.000Z,12.52
2023-03-26T17:02:43.539Z,12.78
2023-03-26T17:05:19.231Z,12.70
2023-03-26T17:07:56.628Z,12.75
2023-03-26T17:10:35.169Z,12.80
2023-03-26T17:13:16.619Z,13.03
2023-03-26T17:16:09.557Z,12.85
2023-03-26T17:18:44.639Z,12.84
2023-03-26T17:21:24.721Z,12.97
2023-03-26T17:24:15.151Z,13.27
2023-03-26T17:27:23.858Z,13.07
2023-03-26T17:30:07.747Z,12.97
2023-03-26T17:33:06.483Z,12.76
2023-03-26T17:35:43.291Z,12.76
2023-03-26T17:38:29.796Z,12.81
2023-03-26T17:40:59.334Z,12.62
2023-03-26T17:43:36.020Z,12.45
2023-03-26T17:46:10.345Z,12.31
2023-03-26T17:48:40.904Z,12.25
2023-03-26T17:51:33.610Z,12.25
2023-03-26T17:54:00.576Z,12.20
2023-03-26T17:56:32.178Z,12.24
2023-03-26T17:59:12.288Z,12.10
2023-03-26T18:01:42.334Z,12.11
2023-03-26T18:04:18.737Z,12.08
2023-03-26T18:07:17.203Z,12.11
2023-03-26T18:10:17.758Z,12.16
2023-03-26T18:13:09.717Z,12.12
2023-03-26T18:15:36.242Z,12.11
2023-03-26T18:18:18.050Z,12.15
2023-03-26T18:20:47.760Z,12.12
2023-03-26T18:23:25.189Z,12.06
2023-03-26T18:26:12.464Z,12.07
2023-03-26T18:28:48.826Z,11.91
2023-03-26T18:31:20.500Z,11.94
2023-03-26T18:33:50.586Z,11.79
2023-03-26T18:36:18.595Z,11.56
2023-03-26T18:38:46.810Z,11.12
2023-03-26T18:41:30.531Z,11.00
2023-03-26T18:44:02.960Z,10.78
2023-03-26T18:46:30.220Z,10.63
2023-03-26T18:48:58.759Z,10.56
2023-03-26T18:51:26.888Z,10.48
2023-03-26T18:53:57.593Z,10.44
2023-03-26T18:56:28.170Z,10.37
2023-03-26T18:58:58.254Z,10.40
2023-03-26T19:01:31.751Z,10.33
2023-03-26T19:04:03.658Z,10.32
2023-03-26T19:06:38.340Z,10.33
2023-03-26T19:09:16.309Z,10.39
2023-03-26T19:11:49.637Z,10.42
2023-03-26T19:14:18.330Z,10.44
2023-03-26T19:16:50.497Z,10.46
2023-03-26T19:19:23.023Z,10.48
2023-03-26T19:21:51.070Z,10.51
2023-03-26T19:24:19.621Z,10.66
2023-03-26T19:26:47.706Z,10.62
2023-03-26T19:29:23.924Z,10.66
2023-03-26T19:31:52.725Z,10.72
2023-03-26T19:34:31.777Z,10.75
2023-03-26T19:37:01.452Z,10.71
2023-03-26T19:39:42.657Z,10.71
2023-03-26T19:42:16.214Z,10.72
2023-03-26T19:44:43.382Z,10.75
2023-03-26T19:47:35.346Z,10.72
2023-03-26T19:50:26.027Z,10.71
2023-03-26T19:53:17.041Z,10.77
2023-03-26T19:56:15.325Z,10.73
2023-03-26T19:58:42.866Z,10.67
2023-03-26T20:01:21.017Z,10.60
2023-03-26T20:03:50.703Z,10.63
2023-03-26T20:06:23.701Z,10.63
2023-03-26T20:08:55.133Z,10.69
2023-03-26T20:11:34.189Z,10.72
2023-03-26T20:14:01.511Z,10.75
2023-03-26T20:16:30.451Z,10.75
2023-03-26T20:18:58.418Z,10.80
2023-03-26T20:21:26.299Z,10.82
2023-03-26T20:23:53.681Z,10.86
2023-03-26T20:26:22.571Z,10.87
2023-03-26T20:28:53.542Z,10.83
2023-03-26T20:31:26.740Z,10.84
2023-03-26T20:33:54.640Z,10.85
2023-03-26T20:36:34.288Z,10.81
2023-03-26T20:39:08.508Z,10.79
2023-03-26T20:41:38.258Z,10.73
2023-03-26T20:44:15.815Z,10.72
2023-03-26T20:46:43.965Z,10.72
2023-03-26T20:49:11.441Z,10.77
2023-03-26T20:51:39.331Z,10.76
2023-03-26T20:54:09.121Z,10.78
2023-03-26T20:56:37.900Z,10.70
2023-03-26T20:59:10.914Z,10.51
2023-03-26T21:01:38.695Z,10.42
2023-03-26T21:04:06.367Z,10.22
2023-03-26T21:06:32.981Z,10.05
2023-03-26T21:08:59.886Z,10.00
2023-03-26T21:11:44.742Z,9.96
2023-03-26T21:14:21.207Z,9.73
2023-03-26T21:16:48.401Z,9.55
2023-03-26T21:19:15.851Z,9.43
2023-03-26T21:22:00.903Z,9.29
2023-03-26T21:24:45.933Z,9.32
2023-03-26T21:28:08.126Z,9.41
2023-03-26T21:30:35.414Z,9.41
2023-03-26T21:33:02.433Z,9.50
2023-03-26T21:35:29.370Z,9.50
2023-03-26T21:37:57.642Z,9.57
2023-03-26T21:40:24.377Z,9.62
2023-03-26T21:42:52.573Z,9.60
2023-03-26T21:45:19.869Z,9.59
2023-03-26T21:47:46.992Z,9.58
2023-03-26T21:50:16.910Z,9.58
2023-03-26T21:52:49.751Z,9.35
2023-03-26T21:55:17.925Z,9.30
2023-03-26T21:57:58.647Z,9.40
2023-03-26T22:00:41.153Z,9.44
2023-03-26T22:03:58.165Z,9.45
2023-03-26T22:06:32.074Z,9.49
2023-03-26T22:08:59.686Z,9.49
2023-03-26T22:11:26.310Z,9.49
2023-03-26T22:13:53.303Z,9.47
2023-03-26T22:16:25.087Z,9.47
2023-03-26T22:18:53.624Z,9.41
2023-03-26T22:21:20.508Z,9.40
2023-03-26T22:23:52.714Z,9.45
2023-03-26T22:26:21.936Z,9.40
2023-03-26T22:28:49.397Z,9.39
2023-03-26T22:31:16.797Z,9.33
2023-03-26T22:33:43.803Z,9.32
2023-03-26T22:36:23.135Z,9.29
2023-03-26T22:38:53.775Z,9.31
2023-03-26T22:41:21.575Z,9.26
2023-03-26T22:43:48.154Z,9.17
2023-03-26T22:46:15.788Z,9.18
2023-03-26T22:48:42.336Z,9.17
2023-03-26T22:51:09.438Z,9.18
2023-03-26T22:53:36.121Z,9.17
2023-03-26T22:56:04.076Z,9.12
2023-03-26T22:58:30.755Z,9.14
2023-03-26T23:01:24.130Z,9.17
2023-03-26T23:03:50.987Z,9.15
2023-03-26T23:06:17.726Z,9.10
2023-03-26T23:08:44.432Z,9.15
2023-03-26T23:11:19.150Z,9.14
2023-03-26T23:13:47.817Z,9.13
2023-03-26T23:16:16.557Z,9.13
2023-03-26T23:18:43.340Z,9.14
2023-03-26T23:21:21.200Z,9.15
2023-03-26T23:23:49.390Z,9.14
2023-03-26T23:26:16.547Z,9.18
2023-03-26T23:28:43.523Z,9.19
2023-03-26T23:31:12.242Z,9.18
2023-03-26T23:33:46.107Z,9.21
2023-03-26T23:36:17.797Z,9.20
2023-03-26T23:38:49.052Z,9.21
2023-03-26T23:41:21.758Z,9.23
2023-03-26T23:43:56.095Z,9.21
2023-03-26T23:46:24.844Z,9.23
2023-03-26T23:48:52.268Z,9.20
2023-03-26T23:51:20.284Z,9.16
2023-03-26T23:53:49.674Z,9.22
2023-03-26T23:56:16.996Z,9.22
2023-03-26T23:58:44.018Z,9.18
